This is the latest recevied weather packets stored in our database for station/object N9CQS-13. If no packets are shown the sender has not sent any weather packets the latest 10 day(s).
| Time | Temp. | Humidity | Pressure | Rain* | Wind** | Luminosity | Snow |
|---|---|---|---|---|---|---|---|
| 1777600292 | 12.78° C | 65% | 1014.6 hPa | 0 mm | - | - | - |
| 1777599691 | 12.78° C | 65% | 1014.7 hPa | 0 mm | - | - | - |
| 1777599091 | 12.78° C | 65% | 1014.7 hPa | 0 mm | - | - | - |
| 1777598492 | 13.33° C | 61% | 1014.7 hPa | 0 mm | - | - | - |
| 1777597891 | 13.33° C | 62% | 1014.7 hPa | 0 mm | - | - | - |
| 1777597291 | 13.33° C | 60% | 1014.6 hPa | 0 mm | - | - | - |
| 1777596691 | 13.33° C | 60% | 1014.5 hPa | 0 mm | - | - | - |
| 1777596091 | 13.89° C | 60% | 1014.5 hPa | 0 mm | - | - | - |
| 1777595491 | 13.89° C | 59% | 1014.5 hPa | 0 mm | - | - | - |
| 1777594893 | 13.89° C | 56% | 1014.5 hPa | 0 mm | - | - | - |
| 1777594293 | 14.44° C | 55% | 1014.5 hPa | 0 mm | - | - | - |
| 1777593692 | 14.44° C | 53% | 1014.4 hPa | 0 mm | - | - | - |
| 1777593092 | 15° C | 55% | 1014.4 hPa | 0 mm | - | - | - |
| 1777592492 | 15° C | 54% | 1014.4 hPa | 0 mm | - | - | - |
| 1777591892 | 15° C | 52% | 1014.5 hPa | 0 mm | - | - | - |
| 1777591292 | 15.56° C | 51% | 1014.5 hPa | 0 mm | - | - | - |
| 1777590692 | 15.56° C | 50% | 1014.5 hPa | 0 mm | - | - | - |
| 1777590092 | 16.11° C | 47% | 1014.4 hPa | 0 mm | - | - | - |
| 1777589492 | 15.56° C | 48% | 1014.8 hPa | 0 mm | - | - | - |
| 1777588892 | 16.11° C | 47% | 1014.7 hPa | 0 mm | - | - | - |
| 1777588293 | 16.11° C | 43% | 1014.6 hPa | 0 mm | - | - | - |
| 1777587692 | 16.67° C | 42% | 1014.6 hPa | 0 mm | - | - | - |
| 1777587092 | 16.67° C | 43% | 1014.7 hPa | 0 mm | - | - | - |
| 1777586492 | 16.67° C | 42% | 1014.7 hPa | 0 mm | - | - | - |
| 1777585892 | 16.11° C | 44% | 1014.9 hPa | 0 mm | - | - | - |
* Rain latest hour (hover to see other rain measurements)
** Current wind speed in m/s (hover to see current wind gust speed)